createdAt,value
2023-04-23T00:01:08.803Z,8.70
2023-04-23T00:04:13.865Z,7.60
2023-04-23T00:07:20.555Z,14.48
2023-04-23T00:10:24.104Z,22.15
2023-04-23T00:13:27.578Z,24.90
2023-04-23T00:16:31.088Z,32.93
2023-04-23T00:19:34.330Z,32.30
2023-04-23T00:22:37.820Z,27.10
2023-04-23T00:25:40.865Z,45.15
2023-04-23T00:28:44.124Z,47.77
2023-04-23T00:31:47.746Z,37.03
2023-04-23T00:34:50.976Z,32.35
2023-04-23T00:37:53.926Z,23.95
2023-04-23T00:40:57.498Z,15.30
2023-04-23T00:44:00.764Z,7.97
2023-04-23T00:47:04.125Z,7.83
2023-04-23T00:50:08.288Z,6.75
2023-04-23T00:53:12.616Z,7.40
2023-04-23T00:56:18.001Z,7.50
2023-04-23T00:59:22.018Z,6.37
2023-04-23T01:02:28.127Z,5.97
2023-04-23T01:05:31.399Z,5.70
2023-04-23T01:08:36.456Z,6.82
2023-04-23T01:11:42.050Z,8.60
2023-04-23T01:14:46.174Z,7.17
2023-04-23T01:17:49.485Z,9.73
2023-04-23T01:20:52.708Z,6.82
2023-04-23T01:23:56.185Z,6.22
2023-04-23T01:26:59.144Z,6.95
2023-04-23T01:30:04.927Z,7.27
2023-04-23T01:33:09.200Z,5.83
2023-04-23T01:36:12.711Z,6.97
2023-04-23T01:39:16.101Z,6.32
2023-04-23T01:42:19.649Z,7.70
2023-04-23T01:45:23.091Z,6.63
2023-04-23T01:48:26.571Z,6.60
2023-04-23T01:51:30.600Z,6.22
2023-04-23T01:54:33.849Z,6.03
2023-04-23T01:57:37.280Z,6.57
2023-04-23T02:00:40.635Z,9.10
2023-04-23T02:03:45.228Z,7.60
2023-04-23T02:06:50.520Z,7.03
2023-04-23T02:09:53.769Z,9.98
2023-04-23T02:12:58.436Z,7.72
2023-04-23T02:16:01.828Z,7.90
2023-04-23T02:19:05.415Z,5.83
2023-04-23T02:22:09.388Z,6.25
2023-04-23T02:25:15.828Z,8.52
2023-04-23T02:28:18.978Z,6.97
2023-04-23T02:31:22.909Z,6.77
2023-04-23T02:34:26.293Z,9.17
2023-04-23T02:37:29.480Z,7.13
2023-04-23T02:40:32.517Z,6.05
2023-04-23T02:43:35.901Z,6.97
2023-04-23T02:46:38.831Z,7.23
2023-04-23T02:49:42.108Z,5.93
2023-04-23T02:52:45.456Z,8.18
2023-04-23T02:55:48.722Z,6.70
2023-04-23T02:58:51.881Z,8.35
2023-04-23T03:01:55.456Z,8.07
2023-04-23T03:04:58.777Z,7.97
2023-04-23T03:08:01.760Z,5.93
2023-04-23T03:11:05.272Z,7.72
2023-04-23T03:14:09.462Z,7.07
2023-04-23T03:17:12.679Z,6.63
2023-04-23T03:20:15.695Z,7.37
2023-04-23T03:23:19.344Z,7.63
2023-04-23T03:26:23.876Z,6.93
2023-04-23T03:29:30.811Z,6.95
2023-04-23T03:32:34.485Z,5.87
2023-04-23T03:35:37.742Z,6.83
2023-04-23T03:38:45.212Z,16.25
2023-04-23T03:41:49.673Z,23.33
2023-04-23T03:44:56.161Z,26.27
2023-04-23T03:47:59.057Z,28.57
2023-04-23T03:51:03.412Z,20.53
2023-04-23T03:54:19.664Z,23.80
2023-04-23T03:57:41.542Z,22.58
2023-04-23T04:00:56.148Z,20.75
2023-04-23T04:03:59.672Z,21.77
2023-04-23T04:07:03.187Z,21.73
2023-04-23T04:10:07.035Z,17.42
2023-04-23T04:13:10.069Z,14.30
2023-04-23T04:16:13.514Z,15.18
2023-04-23T04:19:16.764Z,10.53
2023-04-23T04:22:20.259Z,11.48
2023-04-23T04:25:24.326Z,12.43
2023-04-23T04:28:27.767Z,15.50
2023-04-23T04:31:31.394Z,16.97
2023-04-23T04:34:36.312Z,18.08
2023-04-23T04:37:39.281Z,22.60
2023-04-23T04:40:43.970Z,30.05
2023-04-23T04:43:48.488Z,27.97
2023-04-23T04:46:52.925Z,29.60
2023-04-23T04:49:57.833Z,35.58
2023-04-23T04:53:01.030Z,28.45
2023-04-23T04:56:04.043Z,24.65
2023-04-23T04:59:07.192Z,22.70
2023-04-23T05:02:10.526Z,28.57
2023-04-23T05:05:13.979Z,22.23
2023-04-23T05:08:17.602Z,20.85
2023-04-23T05:11:21.213Z,26.98
2023-04-23T05:14:26.802Z,18.45
2023-04-23T05:17:29.858Z,20.20
2023-04-23T05:20:33.033Z,22.50
2023-04-23T05:23:36.630Z,20.10
2023-04-23T05:26:39.631Z,21.33
2023-04-23T05:29:42.584Z,20.02
2023-04-23T05:32:45.809Z,15.80
2023-04-23T05:35:48.873Z,12.32
2023-04-23T05:38:52.783Z,15.63
2023-04-23T05:41:56.413Z,16.42
2023-04-23T05:44:59.420Z,15.18
2023-04-23T05:48:02.511Z,17.93
2023-04-23T05:51:05.592Z,18.27
2023-04-23T05:54:08.542Z,18.25
2023-04-23T05:57:12.360Z,20.45
2023-04-23T06:00:17.143Z,14.05
2023-04-23T06:03:20.587Z,13.93
2023-04-23T06:06:23.935Z,14.48
2023-04-23T06:09:26.964Z,12.38
2023-04-23T06:12:30.137Z,11.48
2023-04-23T06:15:33.309Z,13.65
2023-04-23T06:18:37.849Z,9.23
2023-04-23T06:21:41.266Z,10.77
2023-04-23T06:24:44.435Z,12.35
2023-04-23T06:27:47.635Z,14.93
2023-04-23T06:30:56.190Z,11.68
2023-04-23T06:33:59.643Z,10.93
2023-04-23T06:37:02.593Z,9.85
2023-04-23T06:40:07.209Z,12.45
2023-04-23T06:43:11.292Z,9.65
2023-04-23T06:46:37.295Z,13.40
2023-04-23T06:49:41.324Z,14.63
2023-04-23T06:52:45.372Z,10.68
2023-04-23T06:55:50.020Z,10.32
2023-04-23T06:58:53.172Z,11.07
2023-04-23T07:01:57.981Z,12.35
2023-04-23T07:05:01.382Z,10.10
2023-04-23T07:08:04.773Z,9.68
2023-04-23T07:11:08.197Z,10.27
2023-04-23T07:14:11.299Z,9.25
2023-04-23T07:17:14.190Z,12.43
2023-04-23T07:20:17.312Z,10.20
2023-04-23T07:23:20.589Z,8.10
2023-04-23T07:26:25.603Z,8.30
2023-04-23T07:29:28.751Z,10.13
2023-04-23T07:32:32.150Z,10.27
2023-04-23T07:35:35.675Z,12.33
2023-04-23T07:38:39.087Z,9.75
2023-04-23T07:41:42.911Z,11.00
2023-04-23T07:44:46.462Z,10.68
2023-04-23T07:47:50.847Z,8.25
2023-04-23T07:50:54.298Z,8.97
2023-04-23T07:53:58.414Z,7.03
2023-04-23T07:57:01.487Z,8.45
2023-04-23T08:00:09.432Z,7.93
2023-04-23T08:03:15.374Z,8.05
2023-04-23T08:06:18.832Z,7.60
2023-04-23T08:09:21.695Z,5.95
2023-04-23T08:12:24.541Z,7.80
2023-04-23T08:18:57.837Z,6.35
2023-04-23T08:22:07.891Z,4.07
2023-04-23T08:25:12.840Z,6.18
2023-04-23T08:28:16.439Z,4.85
2023-04-23T08:31:26.428Z,5.70
2023-04-23T08:34:31.819Z,8.00
2023-04-23T08:37:35.731Z,5.27
2023-04-23T08:40:41.516Z,5.22
2023-04-23T08:43:55.877Z,5.95
2023-04-23T08:47:04.944Z,6.28
2023-04-23T08:50:10.400Z,6.90
2023-04-23T08:53:19.908Z,5.37
2023-04-23T08:56:24.352Z,5.82
2023-04-23T08:59:30.813Z,4.43
2023-04-23T09:02:38.486Z,4.97
2023-04-23T09:05:41.908Z,4.72
2023-04-23T09:08:46.648Z,5.73
2023-04-23T09:11:52.803Z,5.00
2023-04-23T09:14:57.632Z,5.90
2023-04-23T09:18:01.867Z,4.57
2023-04-23T09:21:05.892Z,4.85
2023-04-23T09:24:12.926Z,5.40
2023-04-23T09:27:24.164Z,5.95
2023-04-23T09:30:27.802Z,4.85
2023-04-23T09:33:32.942Z,5.07
2023-04-23T09:36:37.750Z,6.20
2023-04-23T09:39:41.661Z,5.67
2023-04-23T09:42:54.665Z,4.55
2023-04-23T09:45:58.186Z,4.80
2023-04-23T09:49:07.896Z,7.22
2023-04-23T09:52:13.783Z,5.13
2023-04-23T09:55:28.433Z,4.53
2023-04-23T09:58:31.582Z,5.00
2023-04-23T10:01:34.604Z,6.25
2023-04-23T10:04:38.782Z,3.88
2023-04-23T10:07:43.095Z,5.30
2023-04-23T10:10:59.974Z,3.83
2023-04-23T10:14:06.929Z,4.18
2023-04-23T10:17:10.959Z,4.28
2023-04-23T10:20:16.350Z,3.85
2023-04-23T10:23:22.448Z,4.22
2023-04-23T10:26:26.357Z,4.80
2023-04-23T10:29:34.195Z,3.92
2023-04-23T10:32:38.991Z,3.90
2023-04-23T10:35:42.081Z,3.20
2023-04-23T10:38:56.601Z,4.93
2023-04-23T10:42:02.398Z,3.73
2023-04-23T10:45:23.280Z,3.45
2023-04-23T10:48:28.846Z,3.60
2023-04-23T10:54:44.484Z,3.65
2023-04-23T10:58:01.206Z,3.93
2023-04-23T11:01:06.091Z,4.18
2023-04-23T11:04:31.115Z,3.10
2023-04-23T11:07:34.750Z,3.60
2023-04-23T11:10:54.934Z,3.58
2023-04-23T11:13:59.617Z,4.93
2023-04-23T11:17:06.868Z,3.67
2023-04-23T11:20:16.558Z,3.58
2023-04-23T11:23:37.598Z,4.53
2023-04-23T11:26:44.043Z,5.40
2023-04-23T11:29:48.070Z,3.53
2023-04-23T11:32:54.707Z,2.90
2023-04-23T11:35:58.151Z,3.40
2023-04-23T11:39:04.133Z,2.85
2023-04-23T11:42:14.430Z,4.38
2023-04-23T11:45:19.035Z,3.23
2023-04-23T11:48:22.242Z,4.75
2023-04-23T11:51:27.169Z,2.33
2023-04-23T11:54:30.409Z,3.97
2023-04-23T11:57:37.797Z,3.55
2023-04-23T12:00:41.613Z,3.90
2023-04-23T12:03:49.576Z,2.67
2023-04-23T12:06:54.890Z,2.90
2023-04-23T12:10:00.776Z,3.83
2023-04-23T12:13:04.087Z,3.50
2023-04-23T12:16:08.585Z,3.77
2023-04-23T12:19:15.772Z,3.67
2023-04-23T12:22:28.488Z,2.67
2023-04-23T12:25:32.053Z,3.30
2023-04-23T12:28:35.531Z,3.47
2023-04-23T12:31:39.309Z,3.23
2023-04-23T12:34:55.956Z,3.35
2023-04-23T12:37:58.949Z,3.55
2023-04-23T12:41:02.172Z,3.88
2023-04-23T12:44:05.594Z,2.97
2023-04-23T12:47:11.571Z,2.43
2023-04-23T12:50:14.583Z,3.33
2023-04-23T12:53:18.782Z,3.28
2023-04-23T12:56:21.678Z,3.33
2023-04-23T12:59:24.903Z,3.85
2023-04-23T13:02:28.355Z,5.23
2023-04-23T13:05:31.702Z,3.25
2023-04-23T13:08:34.648Z,5.10
2023-04-23T13:11:39.420Z,3.30
2023-04-23T13:14:42.818Z,3.63
2023-04-23T13:17:46.168Z,3.97
2023-04-23T13:20:50.052Z,5.75
2023-04-23T13:23:53.425Z,3.40
2023-04-23T13:26:57.219Z,3.78
2023-04-23T13:30:00.764Z,2.65
2023-04-23T13:33:04.589Z,3.47
2023-04-23T13:36:08.714Z,3.88
2023-04-23T13:39:14.320Z,4.40
2023-04-23T13:42:17.759Z,2.88
2023-04-23T13:45:21.010Z,3.40
2023-04-23T13:48:28.697Z,3.33
2023-04-23T13:51:35.191Z,2.72
2023-04-23T13:54:39.981Z,3.10
2023-04-23T13:57:42.931Z,5.47
2023-04-23T14:00:46.506Z,3.20
2023-04-23T14:03:49.723Z,4.77
2023-04-23T14:06:53.056Z,3.65
2023-04-23T14:09:56.272Z,3.97
2023-04-23T14:12:59.383Z,3.85
2023-04-23T14:16:03.679Z,4.10
2023-04-23T14:19:06.927Z,3.63
2023-04-23T14:22:10.265Z,3.22
2023-04-23T14:25:23.892Z,2.85
2023-04-23T14:28:40.961Z,3.85
2023-04-23T14:31:43.948Z,3.30
2023-04-23T14:34:47.149Z,3.93
2023-04-23T14:37:50.039Z,4.22
2023-04-23T14:40:53.854Z,4.25
2023-04-23T14:43:57.136Z,3.60
2023-04-23T14:47:00.525Z,4.28
2023-04-23T14:50:04.232Z,2.70
2023-04-23T14:53:10.236Z,2.85
2023-04-23T14:56:13.329Z,2.67
2023-04-23T14:59:16.412Z,3.60
2023-04-23T15:02:19.579Z,3.92
2023-04-23T15:05:22.541Z,4.47
2023-04-23T15:08:25.994Z,3.90
2023-04-23T15:11:29.535Z,4.00
2023-04-23T15:14:37.491Z,2.80
2023-04-23T15:17:40.840Z,3.17
2023-04-23T15:20:44.618Z,3.23
2023-04-23T15:23:48.007Z,4.20
2023-04-23T15:26:53.518Z,3.03
2023-04-23T15:29:57.113Z,3.55
2023-04-23T15:33:00.321Z,4.40
2023-04-23T15:36:04.255Z,3.10
2023-04-23T15:39:08.761Z,2.97
2023-04-23T15:42:14.334Z,3.03
2023-04-23T15:45:17.577Z,2.38
2023-04-23T15:48:21.553Z,4.70
2023-04-23T15:51:24.528Z,4.27
2023-04-23T15:54:27.431Z,4.30
2023-04-23T15:57:31.030Z,3.38
2023-04-23T16:00:34.434Z,3.60
2023-04-23T16:03:38.054Z,3.70
2023-04-23T16:06:41.321Z,3.70
2023-04-23T16:09:44.522Z,3.95
2023-04-23T16:12:48.695Z,5.72
2023-04-23T16:15:51.871Z,6.82
2023-04-23T16:18:56.361Z,4.05
2023-04-23T16:22:00.903Z,4.53
2023-04-23T16:25:05.112Z,3.28
2023-04-23T16:28:08.648Z,5.28
2023-04-23T16:31:12.716Z,3.50
2023-04-23T16:34:16.074Z,3.25
2023-04-23T16:37:19.862Z,2.97
2023-04-23T16:40:23.056Z,4.20
2023-04-23T16:43:26.351Z,7.72
2023-04-23T16:46:31.504Z,3.47
2023-04-23T16:49:35.499Z,4.50
2023-04-23T16:52:38.812Z,3.30
2023-04-23T16:55:42.079Z,4.15
2023-04-23T16:58:45.376Z,4.25
2023-04-23T17:01:48.430Z,3.17
2023-04-23T17:04:51.957Z,4.00
2023-04-23T17:07:55.474Z,3.27
2023-04-23T17:10:58.458Z,3.47
2023-04-23T17:14:01.724Z,2.50
2023-04-23T17:17:04.978Z,4.20
2023-04-23T17:20:09.008Z,4.53
2023-04-23T17:23:12.680Z,3.87
2023-04-23T17:26:15.923Z,4.95
2023-04-23T17:29:19.634Z,3.22
2023-04-23T17:32:23.767Z,4.30
2023-04-23T17:35:27.014Z,6.18
2023-04-23T17:38:30.499Z,5.77
2023-04-23T17:41:34.067Z,5.63
2023-04-23T17:44:41.112Z,4.30
2023-04-23T17:47:44.616Z,4.10
2023-04-23T17:50:47.829Z,4.80
2023-04-23T17:53:53.696Z,5.47
2023-04-23T17:56:56.592Z,4.20
2023-04-23T18:00:02.373Z,4.63
2023-04-23T18:03:17.790Z,6.10
2023-04-23T18:06:22.164Z,3.70
2023-04-23T18:09:25.581Z,6.83
2023-04-23T18:12:30.261Z,4.82
2023-04-23T18:15:33.656Z,4.35
2023-04-23T18:18:37.019Z,4.93
2023-04-23T18:21:40.850Z,4.38
2023-04-23T18:24:44.818Z,6.03
2023-04-23T18:27:48.973Z,5.70
2023-04-23T18:30:52.556Z,6.22
2023-04-23T18:34:02.386Z,4.50
2023-04-23T18:37:11.277Z,4.70
2023-04-23T18:40:14.978Z,7.80
2023-04-23T18:43:18.899Z,5.25
2023-04-23T18:46:23.255Z,6.97
2023-04-23T18:49:29.745Z,6.70
2023-04-23T18:52:33.254Z,4.57
2023-04-23T18:55:37.156Z,5.50
2023-04-23T18:58:40.962Z,6.22
2023-04-23T19:01:46.327Z,5.90
2023-04-23T19:04:49.606Z,5.72
2023-04-23T19:07:54.671Z,5.50
2023-04-23T19:10:57.907Z,3.70
2023-04-23T19:14:01.935Z,5.53
2023-04-23T19:17:05.464Z,3.30
2023-04-23T19:20:11.423Z,5.93
2023-04-23T19:23:14.835Z,4.07
2023-04-23T19:26:19.094Z,5.30
2023-04-23T19:29:23.352Z,4.88
2023-04-23T19:32:30.134Z,4.65
2023-04-23T19:35:33.929Z,5.07
2023-04-23T19:38:37.802Z,4.82
2023-04-23T19:41:41.440Z,6.03
2023-04-23T19:44:44.706Z,8.73
2023-04-23T19:47:48.169Z,3.83
2023-04-23T19:50:51.320Z,5.07
2023-04-23T19:53:56.042Z,4.18
2023-04-23T19:56:59.464Z,5.10
2023-04-23T20:00:05.106Z,5.03
2023-04-23T20:03:10.095Z,6.28
2023-04-23T20:06:16.500Z,4.35
2023-04-23T20:09:21.189Z,4.85
2023-04-23T20:12:25.444Z,6.87
2023-04-23T20:15:29.206Z,3.67
2023-04-23T20:18:35.592Z,4.85
2023-04-23T20:21:39.810Z,4.97
2023-04-23T20:24:46.408Z,6.28
2023-04-23T20:27:51.119Z,5.97
2023-04-23T20:30:54.334Z,6.60
2023-04-23T20:33:58.043Z,4.40
2023-04-23T20:37:01.327Z,5.13
2023-04-23T20:40:05.690Z,5.90
2023-04-23T20:43:10.042Z,6.10
2023-04-23T20:46:13.200Z,6.63
2023-04-23T20:49:16.905Z,5.72
2023-04-23T20:52:20.118Z,7.13
2023-04-23T20:55:23.336Z,6.07
2023-04-23T20:58:26.734Z,4.77
2023-04-23T21:01:30.645Z,6.50
2023-04-23T21:04:33.799Z,6.60
2023-04-23T21:07:50.926Z,5.22
2023-04-23T21:10:54.099Z,6.40
2023-04-23T21:14:00.201Z,5.97
2023-04-23T21:17:04.177Z,7.30
2023-04-23T21:20:08.717Z,5.07
2023-04-23T21:23:12.627Z,6.20
2023-04-23T21:26:15.801Z,7.28
2023-04-23T21:29:18.886Z,6.33
2023-04-23T21:32:22.152Z,7.15
2023-04-23T21:35:25.167Z,6.97
2023-04-23T21:38:28.537Z,7.00
2023-04-23T21:41:34.284Z,5.68
2023-04-23T21:44:37.551Z,5.57
2023-04-23T21:47:41.718Z,7.13
2023-04-23T21:50:46.151Z,6.95
2023-04-23T21:53:49.550Z,4.85
2023-04-23T21:56:52.485Z,5.10
2023-04-23T21:59:55.674Z,7.47
2023-04-23T22:02:58.927Z,5.07
2023-04-23T22:06:03.350Z,5.53
2023-04-23T22:09:06.434Z,7.88
2023-04-23T22:12:10.024Z,4.72
2023-04-23T22:15:15.433Z,4.83
2023-04-23T22:18:18.545Z,6.75
2023-04-23T22:21:21.853Z,6.00
2023-04-23T22:24:24.725Z,5.07
2023-04-23T22:27:28.481Z,4.97
2023-04-23T22:30:31.772Z,6.07
2023-04-23T22:33:35.217Z,5.75
2023-04-23T22:36:40.720Z,4.50
2023-04-23T22:39:43.970Z,6.90
2023-04-23T22:42:47.689Z,5.13
2023-04-23T22:45:51.074Z,6.03
2023-04-23T22:48:54.905Z,6.00
2023-04-23T22:51:58.085Z,6.40
2023-04-23T22:55:01.426Z,6.22
2023-04-23T22:58:04.952Z,7.90
2023-04-23T23:01:08.359Z,5.63
2023-04-23T23:04:13.195Z,7.63
2023-04-23T23:07:16.317Z,6.00
2023-04-23T23:10:22.746Z,5.78
2023-04-23T23:13:26.157Z,7.15
2023-04-23T23:16:30.664Z,7.83
2023-04-23T23:19:33.856Z,6.55
2023-04-23T23:22:37.675Z,7.20
2023-04-23T23:25:41.242Z,9.38
2023-04-23T23:28:45.465Z,8.55
2023-04-23T23:31:48.551Z,7.67
2023-04-23T23:34:52.007Z,8.00
2023-04-23T23:37:55.137Z,8.63
2023-04-23T23:40:58.174Z,6.68
2023-04-23T23:44:01.205Z,9.02
2023-04-23T23:47:04.313Z,9.27
2023-04-23T23:50:08.306Z,6.50
2023-04-23T23:53:11.676Z,5.80
2023-04-23T23:56:15.287Z,7.25
2023-04-23T23:59:18.649Z,8.85
